sensor_id;sensor_type;location;lat;lon;timestamp;pressure;altitude;pressure_sealevel;temperature;humidity
59519;BME280;46994;54.976;73.404;2022-08-24T00:01:29;101642.78;;;11.61;74.14
59519;BME280;46994;54.976;73.404;2022-08-24T00:03:59;101630.66;;;11.57;73.94
59519;BME280;46994;54.976;73.404;2022-08-24T00:06:26;101649.66;;;11.73;74.02
59519;BME280;46994;54.976;73.404;2022-08-24T00:08:55;101654.00;;;11.84;73.78
59519;BME280;46994;54.976;73.404;2022-08-24T00:11:22;101633.50;;;11.83;73.49
59519;BME280;46994;54.976;73.404;2022-08-24T00:13:49;101648.50;;;12.03;73.09
59519;BME280;46994;54.976;73.404;2022-08-24T00:16:17;101650.75;;;12.25;72.37
59519;BME280;46994;54.976;73.404;2022-08-24T00:18:44;101611.25;;;12.08;72.23
59519;BME280;46994;54.976;73.404;2022-08-24T00:21:11;101647.34;;;12.05;72.40
59519;BME280;46994;54.976;73.404;2022-08-24T00:23:38;101641.09;;;11.87;73.34
59519;BME280;46994;54.976;73.404;2022-08-24T00:26:06;101625.84;;;11.78;73.33
59519;BME280;46994;54.976;73.404;2022-08-24T00:28:34;101648.34;;;12.04;73.04
59519;BME280;46994;54.976;73.404;2022-08-24T00:31:01;101620.47;;;12.05;72.64
59519;BME280;46994;54.976;73.404;2022-08-24T00:33:28;101644.59;;;12.33;71.91
59519;BME280;46994;54.976;73.404;2022-08-24T00:35:55;101646.88;;;12.46;71.68
59519;BME280;46994;54.976;73.404;2022-08-24T00:38:21;101630.06;;;12.44;71.00
59519;BME280;46994;54.976;73.404;2022-08-24T00:40:49;101648.56;;;12.64;70.51
59519;BME280;46994;54.976;73.404;2022-08-24T00:43:22;101608.09;;;12.48;70.01
59519;BME280;46994;54.976;73.404;2022-08-24T00:46:17;101663.41;;;12.69;71.09
59519;BME280;46994;54.976;73.404;2022-08-24T00:48:48;101631.34;;;12.57;70.82
59519;BME280;46994;54.976;73.404;2022-08-24T00:51:21;101635.72;;;12.58;70.92
59519;BME280;46994;54.976;73.404;2022-08-24T00:53:52;101661.25;;;12.72;70.78
59519;BME280;46994;54.976;73.404;2022-08-24T00:56:28;101625.53;;;12.44;71.08
59519;BME280;46994;54.976;73.404;2022-08-24T00:59:02;101668.97;;;12.49;71.91
59519;BME280;46994;54.976;73.404;2022-08-24T01:01:30;101659.50;;;12.45;72.12
59519;BME280;46994;54.976;73.404;2022-08-24T01:03:59;101588.16;;;12.15;72.04
59519;BME280;46994;54.976;73.404;2022-08-24T01:06:26;101650.06;;;12.59;71.98
59519;BME280;46994;54.976;73.404;2022-08-24T01:08:54;101665.03;;;12.61;72.20
59519;BME280;46994;54.976;73.404;2022-08-24T01:11:23;101643.44;;;12.53;72.44
59519;BME280;46994;54.976;73.404;2022-08-24T01:13:52;101659.31;;;12.64;72.93
59519;BME280;46994;54.976;73.404;2022-08-24T01:16:20;101670.00;;;12.74;72.32
59519;BME280;46994;54.976;73.404;2022-08-24T01:19:20;101656.88;;;12.97;70.94
59519;BME280;46994;54.976;73.404;2022-08-24T01:24:42;101668.44;;;13.15;70.48
59519;BME280;46994;54.976;73.404;2022-08-24T01:27:11;101673.53;;;13.18;70.75
59519;BME280;46994;54.976;73.404;2022-08-24T01:29:41;101659.69;;;13.13;70.35
59519;BME280;46994;54.976;73.404;2022-08-24T01:32:08;101639.63;;;13.08;69.97
59519;BME280;46994;54.976;73.404;2022-08-24T01:34:35;101633.00;;;13.20;70.00
59519;BME280;46994;54.976;73.404;2022-08-24T01:37:02;101661.94;;;13.52;69.97
59519;BME280;46994;54.976;73.404;2022-08-24T01:39:36;101669.94;;;13.70;69.45
59519;BME280;46994;54.976;73.404;2022-08-24T01:42:06;101664.03;;;13.74;68.94
59519;BME280;46994;54.976;73.404;2022-08-24T01:44:38;101659.00;;;13.71;69.38
59519;BME280;46994;54.976;73.404;2022-08-24T01:47:10;101661.03;;;13.77;68.60
59519;BME280;46994;54.976;73.404;2022-08-24T01:49:44;101649.41;;;13.85;68.27
59519;BME280;46994;54.976;73.404;2022-08-24T01:52:23;101656.69;;;13.93;67.80
59519;BME280;46994;54.976;73.404;2022-08-24T01:54:52;101665.69;;;14.10;67.07
59519;BME280;46994;54.976;73.404;2022-08-24T01:57:23;101664.00;;;14.17;67.42
59519;BME280;46994;54.976;73.404;2022-08-24T01:59:51;101655.78;;;14.26;66.81
59519;BME280;46994;54.976;73.404;2022-08-24T02:02:25;101659.66;;;14.40;66.30
59519;BME280;46994;54.976;73.404;2022-08-24T02:04:52;101617.50;;;14.23;66.40
59519;BME280;46994;54.976;73.404;2022-08-24T02:07:19;101659.84;;;14.63;65.88
59519;BME280;46994;54.976;73.404;2022-08-24T02:09:46;101627.16;;;14.50;65.35
59519;BME280;46994;54.976;73.404;2022-08-24T02:12:16;101652.06;;;14.84;63.83
59519;BME280;46994;54.976;73.404;2022-08-24T02:14:43;101661.66;;;15.19;62.92
59519;BME280;46994;54.976;73.404;2022-08-24T02:17:10;101656.34;;;15.42;61.91
59519;BME280;46994;54.976;73.404;2022-08-24T02:19:37;101638.06;;;15.53;61.49
59519;BME280;46994;54.976;73.404;2022-08-24T02:22:31;101664.16;;;15.85;61.48
59519;BME280;46994;54.976;73.404;2022-08-24T02:24:58;101666.50;;;15.88;60.96
59519;BME280;46994;54.976;73.404;2022-08-24T02:27:25;101635.19;;;15.62;60.70
59519;BME280;46994;54.976;73.404;2022-08-24T02:29:51;101656.56;;;15.80;60.58
59519;BME280;46994;54.976;73.404;2022-08-24T02:32:18;101670.72;;;15.90;60.84
59519;BME280;46994;54.976;73.404;2022-08-24T02:34:48;101643.59;;;15.75;61.80
59519;BME280;46994;54.976;73.404;2022-08-24T02:37:15;101663.78;;;15.88;61.44
59519;BME280;46994;54.976;73.404;2022-08-24T02:39:42;101647.63;;;15.80;61.54
59519;BME280;46994;54.976;73.404;2022-08-24T02:42:13;101639.03;;;15.76;61.80
59519;BME280;46994;54.976;73.404;2022-08-24T02:44:41;101668.81;;;15.99;62.02
59519;BME280;46994;54.976;73.404;2022-08-24T02:47:08;101669.28;;;16.02;61.50
59519;BME280;46994;54.976;73.404;2022-08-24T02:49:36;101662.34;;;16.08;61.57
59519;BME280;46994;54.976;73.404;2022-08-24T02:52:03;101644.94;;;16.02;61.31
59519;BME280;46994;54.976;73.404;2022-08-24T02:54:31;101664.44;;;16.21;60.74
59519;BME280;46994;54.976;73.404;2022-08-24T02:56:58;101644.56;;;16.14;60.45
59519;BME280;46994;54.976;73.404;2022-08-24T02:59:25;101636.44;;;16.14;60.11
59519;BME280;46994;54.976;73.404;2022-08-24T03:01:52;101638.06;;;16.23;59.88
59519;BME280;46994;54.976;73.404;2022-08-24T03:04:20;101675.41;;;16.50;59.38
59519;BME280;46994;54.976;73.404;2022-08-24T03:06:47;101631.31;;;16.42;59.15
59519;BME280;46994;54.976;73.404;2022-08-24T03:09:14;101638.00;;;16.54;58.74
59519;BME280;46994;54.976;73.404;2022-08-24T03:11:42;101593.69;;;16.32;58.45
59519;BME280;46994;54.976;73.404;2022-08-24T03:14:10;101661.91;;;16.73;59.12
59519;BME280;46994;54.976;73.404;2022-08-24T03:16:37;101659.97;;;16.82;57.52
59519;BME280;46994;54.976;73.404;2022-08-24T03:19:04;101671.66;;;16.97;57.75
59519;BME280;46994;54.976;73.404;2022-08-24T03:21:34;101655.22;;;16.99;57.77
59519;BME280;46994;54.976;73.404;2022-08-24T03:24:01;101647.66;;;16.94;56.75
59519;BME280;46994;54.976;73.404;2022-08-24T03:26:31;101654.03;;;17.01;56.55
59519;BME280;46994;54.976;73.404;2022-08-24T03:28:57;101635.91;;;17.02;56.32
59519;BME280;46994;54.976;73.404;2022-08-24T03:31:25;101660.84;;;17.27;56.30
59519;BME280;46994;54.976;73.404;2022-08-24T03:33:52;101661.50;;;17.29;56.27
59519;BME280;46994;54.976;73.404;2022-08-24T03:36:19;101668.91;;;17.35;55.89
59519;BME280;46994;54.976;73.404;2022-08-24T03:38:46;101662.63;;;17.49;55.65
59519;BME280;46994;54.976;73.404;2022-08-24T03:41:13;101637.50;;;17.40;55.38
59519;BME280;46994;54.976;73.404;2022-08-24T03:43:40;101661.78;;;17.63;55.15
59519;BME280;46994;54.976;73.404;2022-08-24T03:46:25;101625.78;;;17.55;54.51
59519;BME280;46994;54.976;73.404;2022-08-24T03:48:54;101654.31;;;17.80;54.49
59519;BME280;46994;54.976;73.404;2022-08-24T03:51:25;101614.56;;;17.58;54.20
59519;BME280;46994;54.976;73.404;2022-08-24T03:53:54;101636.72;;;17.76;53.90
59519;BME280;46994;54.976;73.404;2022-08-24T03:56:24;101646.88;;;17.89;53.50
59519;BME280;46994;54.976;73.404;2022-08-24T03:58:52;101622.22;;;17.84;54.76
59519;BME280;46994;54.976;73.404;2022-08-24T04:01:19;101647.91;;;18.02;55.08
59519;BME280;46994;54.976;73.404;2022-08-24T04:03:48;101632.03;;;17.99;54.86
59519;BME280;46994;54.976;73.404;2022-08-24T04:06:17;101616.94;;;17.97;54.24
59519;BME280;46994;54.976;73.404;2022-08-24T04:08:44;101621.22;;;18.06;53.62
59519;BME280;46994;54.976;73.404;2022-08-24T04:11:17;101643.09;;;18.19;53.40
59519;BME280;46994;54.976;73.404;2022-08-24T04:13:46;101637.91;;;18.24;53.93
59519;BME280;46994;54.976;73.404;2022-08-24T04:16:16;101636.47;;;18.28;53.18
59519;BME280;46994;54.976;73.404;2022-08-24T04:18:45;101643.00;;;18.34;52.85
59519;BME280;46994;54.976;73.404;2022-08-24T04:21:21;101615.78;;;18.27;52.77
59519;BME280;46994;54.976;73.404;2022-08-24T04:23:50;101635.31;;;18.38;52.11
59519;BME280;46994;54.976;73.404;2022-08-24T04:26:22;101641.25;;;18.48;51.44
59519;BME280;46994;54.976;73.404;2022-08-24T04:28:49;101637.53;;;18.49;51.83
59519;BME280;46994;54.976;73.404;2022-08-24T04:31:18;101607.31;;;18.37;51.55
59519;BME280;46994;54.976;73.404;2022-08-24T04:33:47;101645.34;;;18.58;53.03
59519;BME280;46994;54.976;73.404;2022-08-24T04:36:19;101600.63;;;18.33;51.84
59519;BME280;46994;54.976;73.404;2022-08-24T04:38:48;101628.78;;;18.53;51.11
59519;BME280;46994;54.976;73.404;2022-08-24T04:41:32;101634.47;;;18.58;50.56
59519;BME280;46994;54.976;73.404;2022-08-24T04:44:00;101640.25;;;18.70;49.65
59519;BME280;46994;54.976;73.404;2022-08-24T04:46:28;101617.16;;;18.59;49.92
59519;BME280;46994;54.976;73.404;2022-08-24T04:48:56;101597.69;;;18.56;50.20
59519;BME280;46994;54.976;73.404;2022-08-24T04:51:23;101630.47;;;18.76;49.38
59519;BME280;46994;54.976;73.404;2022-08-24T04:53:50;101623.81;;;18.78;49.74
59519;BME280;46994;54.976;73.404;2022-08-24T04:56:20;101602.03;;;18.72;50.71
59519;BME280;46994;54.976;73.404;2022-08-24T04:58:50;101600.59;;;18.76;51.04
59519;BME280;46994;54.976;73.404;2022-08-24T05:01:21;101613.03;;;18.91;51.09
59519;BME280;46994;54.976;73.404;2022-08-24T05:03:50;101597.53;;;18.85;50.45
59519;BME280;46994;54.976;73.404;2022-08-24T05:06:18;101614.16;;;19.04;50.70
59519;BME280;46994;54.976;73.404;2022-08-24T05:08:46;101608.31;;;19.07;50.78
59519;BME280;46994;54.976;73.404;2022-08-24T05:11:16;101596.91;;;19.18;49.94
59519;BME280;46994;54.976;73.404;2022-08-24T05:13:44;101594.19;;;19.18;49.64
59519;BME280;46994;54.976;73.404;2022-08-24T05:16:15;101580.34;;;19.13;50.17
59519;BME280;46994;54.976;73.404;2022-08-24T05:18:44;101597.59;;;19.33;49.70
59519;BME280;46994;54.976;73.404;2022-08-24T05:21:14;101585.69;;;19.34;49.88
59519;BME280;46994;54.976;73.404;2022-08-24T05:23:43;101582.53;;;19.31;49.82
59519;BME280;46994;54.976;73.404;2022-08-24T05:26:13;101576.28;;;19.30;49.35
59519;BME280;46994;54.976;73.404;2022-08-24T05:28:41;101606.06;;;19.52;49.26
59519;BME280;46994;54.976;73.404;2022-08-24T05:31:16;101567.94;;;19.38;47.62
59519;BME280;46994;54.976;73.404;2022-08-24T05:33:43;101579.66;;;19.45;46.90
59519;BME280;46994;54.976;73.404;2022-08-24T05:36:21;101571.34;;;19.47;46.59
59519;BME280;46994;54.976;73.404;2022-08-24T05:38:49;101592.53;;;19.65;48.09
59519;BME280;46994;54.976;73.404;2022-08-24T05:41:17;101593.19;;;19.73;47.63
59519;BME280;46994;54.976;73.404;2022-08-24T05:43:45;101566.38;;;19.64;46.76
59519;BME280;46994;54.976;73.404;2022-08-24T05:46:13;101566.38;;;19.64;47.48
59519;BME280;46994;54.976;73.404;2022-08-24T05:48:40;101553.19;;;19.61;46.54
59519;BME280;46994;54.976;73.404;2022-08-24T05:51:08;101564.75;;;19.69;45.88
59519;BME280;46994;54.976;73.404;2022-08-24T05:53:44;101580.03;;;19.77;48.01
59519;BME280;46994;54.976;73.404;2022-08-24T05:56:14;101560.34;;;19.68;48.37
59519;BME280;46994;54.976;73.404;2022-08-24T05:58:41;101575.66;;;19.83;48.58
59519;BME280;46994;54.976;73.404;2022-08-24T06:01:14;101559.09;;;19.71;47.03
59519;BME280;46994;54.976;73.404;2022-08-24T06:03:42;101562.03;;;19.76;48.06
59519;BME280;46994;54.976;73.404;2022-08-24T06:06:14;101573.59;;;19.91;48.33
59519;BME280;46994;54.976;73.404;2022-08-24T06:08:44;101549.06;;;19.85;48.48
59519;BME280;46994;54.976;73.404;2022-08-24T06:11:37;101557.66;;;19.95;46.57
59519;BME280;46994;54.976;73.404;2022-08-24T06:14:12;101554.97;;;20.01;47.35
59519;BME280;46994;54.976;73.404;2022-08-24T06:16:49;101542.63;;;20.05;47.31
59519;BME280;46994;54.976;73.404;2022-08-24T06:19:19;101569.03;;;20.31;47.50
59519;BME280;46994;54.976;73.404;2022-08-24T06:21:49;101536.34;;;20.25;47.26
59519;BME280;46994;54.976;73.404;2022-08-24T06:24:17;101544.75;;;20.37;47.61
59519;BME280;46994;54.976;73.404;2022-08-24T06:26:46;101519.19;;;20.31;45.75
59519;BME280;46994;54.976;73.404;2022-08-24T06:29:33;101525.03;;;20.41;44.22
59519;BME280;46994;54.976;73.404;2022-08-24T06:32:16;101567.81;;;20.60;45.27
59519;BME280;46994;54.976;73.404;2022-08-24T06:34:43;101550.84;;;20.58;44.19
59519;BME280;46994;54.976;73.404;2022-08-24T06:37:09;101524.22;;;20.54;44.22
59519;BME280;46994;54.976;73.404;2022-08-24T06:39:37;101522.75;;;20.51;44.79
59519;BME280;46994;54.976;73.404;2022-08-24T06:42:04;101540.34;;;20.69;44.46
59519;BME280;46994;54.976;73.404;2022-08-24T06:44:32;101542.63;;;20.78;43.50
59519;BME280;46994;54.976;73.404;2022-08-24T06:47:20;101529.00;;;20.72;43.41
59519;BME280;46994;54.976;73.404;2022-08-24T06:49:51;101532.97;;;20.89;43.89
59519;BME280;46994;54.976;73.404;2022-08-24T06:52:18;101505.31;;;20.79;44.41
59519;BME280;46994;54.976;73.404;2022-08-24T06:54:46;101512.41;;;20.93;45.82
59519;BME280;46994;54.976;73.404;2022-08-24T06:57:13;101538.31;;;21.22;46.05
59519;BME280;46994;54.976;73.404;2022-08-24T06:59:40;101516.91;;;21.26;44.88
59519;BME280;46994;54.976;73.404;2022-08-24T07:02:08;101492.59;;;21.24;44.44
59519;BME280;46994;54.976;73.404;2022-08-24T07:04:37;101513.94;;;21.40;44.08
59519;BME280;46994;54.976;73.404;2022-08-24T07:07:27;101514.13;;;21.45;43.99
59519;BME280;46994;54.976;73.404;2022-08-24T07:09:54;101516.38;;;21.55;44.08
59519;BME280;46994;54.976;73.404;2022-08-24T07:12:21;101510.94;;;21.55;44.83
59519;BME280;46994;54.976;73.404;2022-08-24T07:14:49;101501.50;;;21.51;44.15
59519;BME280;46994;54.976;73.404;2022-08-24T07:17:17;101432.88;;;21.09;44.11
59519;BME280;46994;54.976;73.404;2022-08-24T07:19:44;101472.59;;;21.43;43.68
59519;BME280;46994;54.976;73.404;2022-08-24T07:22:26;101494.09;;;21.65;44.16
59519;BME280;46994;54.976;73.404;2022-08-24T07:24:53;101483.09;;;21.71;44.95
59519;BME280;46994;54.976;73.404;2022-08-24T07:27:20;101480.56;;;21.76;43.86
59519;BME280;46994;54.976;73.404;2022-08-24T07:29:52;101457.31;;;21.67;43.64
59519;BME280;46994;54.976;73.404;2022-08-24T07:32:19;101495.56;;;21.92;43.66
59519;BME280;46994;54.976;73.404;2022-08-24T07:34:47;101460.41;;;21.77;43.03
59519;BME280;46994;54.976;73.404;2022-08-24T07:37:16;101473.94;;;21.91;43.56
59519;BME280;46994;54.976;73.404;2022-08-24T07:39:47;101457.41;;;21.86;43.24
59519;BME280;46994;54.976;73.404;2022-08-24T07:42:15;101467.75;;;22.02;44.63
59519;BME280;46994;54.976;73.404;2022-08-24T07:44:42;101435.13;;;21.89;43.65
59519;BME280;46994;54.976;73.404;2022-08-24T07:47:09;101442.16;;;22.03;44.35
59519;BME280;46994;54.976;73.404;2022-08-24T07:49:36;101455.72;;;22.16;45.77
59519;BME280;46994;54.976;73.404;2022-08-24T07:52:04;101471.53;;;22.32;42.81
59519;BME280;46994;54.976;73.404;2022-08-24T07:54:31;101439.94;;;22.18;42.55
59519;BME280;46994;54.976;73.404;2022-08-24T07:56:59;101441.56;;;22.26;44.28
59519;BME280;46994;54.976;73.404;2022-08-24T07:59:30;101446.13;;;22.32;43.67
59519;BME280;46994;54.976;73.404;2022-08-24T08:01:58;101454.41;;;22.44;44.15
59519;BME280;46994;54.976;73.404;2022-08-24T08:04:25;101454.41;;;22.44;43.24
59519;BME280;46994;54.976;73.404;2022-08-24T08:06:53;101426.81;;;22.27;43.92
59519;BME280;46994;54.976;73.404;2022-08-24T08:09:20;101421.81;;;22.24;43.92
59519;BME280;46994;54.976;73.404;2022-08-24T08:11:48;101451.50;;;22.39;44.90
59519;BME280;46994;54.976;73.404;2022-08-24T08:14:15;101422.94;;;22.16;43.67
59519;BME280;46994;54.976;73.404;2022-08-24T08:16:42;101438.53;;;22.34;43.80
59519;BME280;46994;54.976;73.404;2022-08-24T08:19:09;101402.72;;;22.24;43.47
59519;BME280;46994;54.976;73.404;2022-08-24T08:21:44;101407.09;;;22.25;43.57
59519;BME280;46994;54.976;73.404;2022-08-24T08:24:38;101397.59;;;22.09;44.92
59519;BME280;46994;54.976;73.404;2022-08-24T08:27:07;101356.56;;;21.91;43.98
59519;BME280;46994;54.976;73.404;2022-08-24T08:29:39;101430.25;;;22.41;42.86
59519;BME280;46994;54.976;73.404;2022-08-24T08:32:08;101417.00;;;22.44;43.07
59519;BME280;46994;54.976;73.404;2022-08-24T08:34:35;101406.97;;;22.38;43.93
59519;BME280;46994;54.976;73.404;2022-08-24T08:37:02;101428.22;;;22.54;43.19
59519;BME280;46994;54.976;73.404;2022-08-24T08:39:32;101390.81;;;22.37;42.77
59519;BME280;46994;54.976;73.404;2022-08-24T08:45:58;101418.72;;;22.57;44.71
59519;BME280;46994;54.976;73.404;2022-08-24T08:54:10;101418.91;;;22.62;43.42
59519;BME280;46994;54.976;73.404;2022-08-24T09:05:43;101407.97;;;22.62;43.97
59519;BME280;46994;54.976;73.404;2022-08-24T09:20:03;101402.34;;;22.75;42.97
59519;BME280;46994;54.976;73.404;2022-08-24T09:22:38;101370.16;;;22.59;43.34
59519;BME280;46994;54.976;73.404;2022-08-24T09:25:23;101389.88;;;22.61;42.90
59519;BME280;46994;54.976;73.404;2022-08-24T09:28:07;101400.22;;;22.59;43.71
59519;BME280;46994;54.976;73.404;2022-08-24T09:33:43;101376.09;;;22.56;44.39
59519;BME280;46994;54.976;73.404;2022-08-24T09:45:13;101379.34;;;22.46;44.04
59519;BME280;46994;54.976;73.404;2022-08-24T10:05:18;101334.03;;;22.39;44.40
59519;BME280;46994;54.976;73.404;2022-08-24T10:10:51;101340.50;;;22.44;44.18
59519;BME280;46994;54.976;73.404;2022-08-24T10:13:42;101361.34;;;22.57;45.56
59519;BME280;46994;54.976;73.404;2022-08-24T10:16:22;101351.25;;;22.57;43.96
59519;BME280;46994;54.976;73.404;2022-08-24T10:19:12;101356.47;;;22.59;44.59
59519;BME280;46994;54.976;73.404;2022-08-24T10:27:00;101352.09;;;22.58;46.48
59519;BME280;46994;54.976;73.404;2022-08-24T10:29:41;101334.34;;;22.49;43.82
59519;BME280;46994;54.976;73.404;2022-08-24T10:32:42;101343.75;;;22.53;44.61
59519;BME280;46994;54.976;73.404;2022-08-24T10:35:34;101337.59;;;22.57;44.21
59519;BME280;46994;54.976;73.404;2022-08-24T10:47:00;101334.63;;;22.59;43.70
59519;BME280;46994;54.976;73.404;2022-08-24T10:54:47;101297.34;;;22.35;44.72
59519;BME280;46994;54.976;73.404;2022-08-24T10:57:34;101297.09;;;22.36;45.32
59519;BME280;46994;54.976;73.404;2022-08-24T11:00:10;101310.81;;;22.48;44.83
59519;BME280;46994;54.976;73.404;2022-08-24T11:02:43;101302.91;;;22.40;43.61
59519;BME280;46994;54.976;73.404;2022-08-24T11:05:14;101307.00;;;22.49;44.25
59519;BME280;46994;54.976;73.404;2022-08-24T11:07:56;101314.31;;;22.55;44.68
59519;BME280;46994;54.976;73.404;2022-08-24T11:10:30;101314.06;;;22.56;44.45
59519;BME280;46994;54.976;73.404;2022-08-24T11:15:48;101312.75;;;22.59;43.72
59519;BME280;46994;54.976;73.404;2022-08-24T11:18:16;101285.84;;;22.44;43.72
59519;BME280;46994;54.976;73.404;2022-08-24T11:20:45;101299.88;;;22.48;43.67
59519;BME280;46994;54.976;73.404;2022-08-24T11:23:23;101305.50;;;22.53;43.18
59519;BME280;46994;54.976;73.404;2022-08-24T11:25:54;101310.13;;;22.52;43.69
59519;BME280;46994;54.976;73.404;2022-08-24T11:28:51;101317.81;;;22.44;43.61
59519;BME280;46994;54.976;73.404;2022-08-24T11:31:26;101289.13;;;22.35;44.29
59519;BME280;46994;54.976;73.404;2022-08-24T11:34:01;101299.34;;;22.39;44.42
59519;BME280;46994;54.976;73.404;2022-08-24T11:36:33;101292.22;;;22.38;44.55
59519;BME280;46994;54.976;73.404;2022-08-24T11:39:33;101272.22;;;22.26;43.42
59519;BME280;46994;54.976;73.404;2022-08-24T11:50:31;101297.94;;;22.37;42.77
59519;BME280;46994;54.976;73.404;2022-08-24T11:53:16;101256.84;;;22.13;43.44
59519;BME280;46994;54.976;73.404;2022-08-24T12:04:24;101242.75;;;21.91;43.64
59519;BME280;46994;54.976;73.404;2022-08-24T12:07:30;101273.88;;;22.09;43.61
59519;BME280;46994;54.976;73.404;2022-08-24T12:16:11;101245.34;;;21.86;44.46
59519;BME280;46994;54.976;73.404;2022-08-24T12:21:18;101253.00;;;21.96;45.36
59519;BME280;46994;54.976;73.404;2022-08-24T12:23:51;101249.50;;;21.89;46.28
59519;BME280;46994;54.976;73.404;2022-08-24T12:26:52;101259.53;;;21.95;45.28
59519;BME280;46994;54.976;73.404;2022-08-24T12:29:48;101252.00;;;21.90;45.01
59519;BME280;46994;54.976;73.404;2022-08-24T12:32:25;101257.09;;;21.87;44.76
59519;BME280;46994;54.976;73.404;2022-08-24T12:35:08;101253.78;;;21.85;45.84
59519;BME280;46994;54.976;73.404;2022-08-24T12:37:49;101225.03;;;21.64;46.37
59519;BME280;46994;54.976;73.404;2022-08-24T12:40:26;101249.66;;;21.75;46.06
59519;BME280;46994;54.976;73.404;2022-08-24T12:43:02;101235.13;;;21.63;46.70
59519;BME280;46994;54.976;73.404;2022-08-24T12:45:31;101265.88;;;21.70;45.59
59519;BME280;46994;54.976;73.404;2022-08-24T12:53:21;101260.88;;;21.67;44.76
59519;BME280;46994;54.976;73.404;2022-08-24T12:56:04;101247.97;;;21.56;45.68
59519;BME280;46994;54.976;73.404;2022-08-24T12:58:56;101223.34;;;21.44;46.09
59519;BME280;46994;54.976;73.404;2022-08-24T13:01:29;101215.22;;;21.38;46.28
59519;BME280;46994;54.976;73.404;2022-08-24T13:04:14;101246.38;;;21.48;46.57
59519;BME280;46994;54.976;73.404;2022-08-24T13:06:50;101238.88;;;21.44;47.27
59519;BME280;46994;54.976;73.404;2022-08-24T13:09:38;101234.25;;;21.44;46.82
59519;BME280;46994;54.976;73.404;2022-08-24T13:17:56;101234.19;;;21.26;47.18
59519;BME280;46994;54.976;73.404;2022-08-24T13:20:30;101245.50;;;21.23;47.84
59519;BME280;46994;54.976;73.404;2022-08-24T13:23:21;101203.38;;;20.94;48.06
59519;BME280;46994;54.976;73.404;2022-08-24T13:26:24;101232.22;;;21.08;48.07
59519;BME280;46994;54.976;73.404;2022-08-24T13:28:54;101213.28;;;20.88;48.84
59519;BME280;46994;54.976;73.404;2022-08-24T13:31:31;101242.56;;;21.00;49.08
59519;BME280;46994;54.976;73.404;2022-08-24T13:36:53;101234.53;;;20.80;49.87
59519;BME280;46994;54.976;73.404;2022-08-24T13:42:25;101203.94;;;20.40;51.36
59519;BME280;46994;54.976;73.404;2022-08-24T13:51:28;101237.09;;;20.23;53.17
59519;BME280;46994;54.976;73.404;2022-08-24T13:54:02;101240.53;;;20.05;54.80
59519;BME280;46994;54.976;73.404;2022-08-24T13:56:43;101241.41;;;19.93;55.55
59519;BME280;46994;54.976;73.404;2022-08-24T13:59:31;101242.28;;;19.80;56.59
59519;BME280;46994;54.976;73.404;2022-08-24T14:07:42;101231.66;;;19.39;58.42
59519;BME280;46994;54.976;73.404;2022-08-24T14:11:14;101207.22;;;19.12;58.66
59519;BME280;46994;54.976;73.404;2022-08-24T14:17:05;101237.50;;;19.03;60.31
59519;BME280;46994;54.976;73.404;2022-08-24T14:22:50;101209.06;;;18.66;61.44
59519;BME280;46994;54.976;73.404;2022-08-24T14:25:27;101227.84;;;18.67;59.79
59519;BME280;46994;54.976;73.404;2022-08-24T14:46:18;101227.25;;;18.11;60.36
59519;BME280;46994;54.976;73.404;2022-08-24T14:49:10;101196.88;;;17.87;60.13
59519;BME280;46994;54.976;73.404;2022-08-24T15:08:09;101194.75;;;17.48;62.24
59519;BME280;46994;54.976;73.404;2022-08-24T15:10:53;101225.25;;;17.57;61.22
59519;BME280;46994;54.976;73.404;2022-08-24T15:18:44;101201.75;;;17.36;62.83
59519;BME280;46994;54.976;73.404;2022-08-24T15:24:10;101209.59;;;17.24;61.75
59519;BME280;46994;54.976;73.404;2022-08-24T15:26:54;101216.06;;;17.23;62.08
59519;BME280;46994;54.976;73.404;2022-08-24T15:29:30;101232.59;;;17.35;62.01
59519;BME280;46994;54.976;73.404;2022-08-24T15:31:59;101208.13;;;17.22;62.96
59519;BME280;46994;54.976;73.404;2022-08-24T15:34:46;101221.66;;;17.22;62.96
59519;BME280;46994;54.976;73.404;2022-08-24T15:37:17;101192.34;;;17.04;63.03
59519;BME280;46994;54.976;73.404;2022-08-24T15:39:50;101230.03;;;17.27;64.13
59519;BME280;46994;54.976;73.404;2022-08-24T15:42:17;101197.78;;;17.04;63.60
59519;BME280;46994;54.976;73.404;2022-08-24T15:44:46;101186.47;;;17.00;63.67
59519;BME280;46994;54.976;73.404;2022-08-24T15:47:24;101221.22;;;17.18;63.78
59519;BME280;46994;54.976;73.404;2022-08-24T15:49:59;101195.25;;;17.02;63.78
59519;BME280;46994;54.976;73.404;2022-08-24T15:55:04;101211.31;;;17.04;65.82
59519;BME280;46994;54.976;73.404;2022-08-24T15:57:38;101211.50;;;17.02;65.22
59519;BME280;46994;54.976;73.404;2022-08-24T16:00:15;101226.72;;;17.03;65.10
59519;BME280;46994;54.976;73.404;2022-08-24T16:03:22;101221.25;;;16.97;66.22
59519;BME280;46994;54.976;73.404;2022-08-24T16:05:51;101172.81;;;16.66;66.41
59519;BME280;46994;54.976;73.404;2022-08-24T16:08:19;101194.94;;;16.69;65.46
59519;BME280;46994;54.976;73.404;2022-08-24T16:10:47;101217.81;;;16.88;65.15
59519;BME280;46994;54.976;73.404;2022-08-24T16:16:04;101212.59;;;16.86;65.61
59519;BME280;46994;54.976;73.404;2022-08-24T16:18:51;101210.94;;;16.85;64.50
59519;BME280;46994;54.976;73.404;2022-08-24T16:24:11;101209.91;;;16.86;66.78
59519;BME280;46994;54.976;73.404;2022-08-24T16:34:49;101198.22;;;16.64;66.42
59519;BME280;46994;54.976;73.404;2022-08-24T16:37:17;101162.63;;;16.46;66.86